sensor_id;sensor_type;location;lat;lon;timestamp;P1;durP1;ratioP1;P2;durP2;ratioP2
35312;SDS011;21425;50.454;30.466;2023-08-08T00:01:54;7.97;;;2.83;;
35312;SDS011;21425;50.454;30.466;2023-08-08T00:04:20;6.18;;;2.20;;
35312;SDS011;21425;50.454;30.466;2023-08-08T00:06:46;5.88;;;2.38;;
35312;SDS011;21425;50.454;30.466;2023-08-08T00:09:11;8.13;;;2.60;;
35312;SDS011;21425;50.454;30.466;2023-08-08T00:11:37;5.15;;;2.40;;
35312;SDS011;21425;50.454;30.466;2023-08-08T00:14:02;5.55;;;2.65;;
35312;SDS011;21425;50.454;30.466;2023-08-08T00:16:28;5.63;;;2.60;;
35312;SDS011;21425;50.454;30.466;2023-08-08T00:18:54;3.88;;;2.25;;
35312;SDS011;21425;50.454;30.466;2023-08-08T00:21:20;4.35;;;2.28;;
35312;SDS011;21425;50.454;30.466;2023-08-08T00:23:46;5.18;;;2.65;;
35312;SDS011;21425;50.454;30.466;2023-08-08T00:26:11;3.78;;;2.30;;
35312;SDS011;21425;50.454;30.466;2023-08-08T00:28:37;7.70;;;2.58;;
35312;SDS011;21425;50.454;30.466;2023-08-08T00:31:03;5.03;;;2.30;;
35312;SDS011;21425;50.454;30.466;2023-08-08T00:33:29;3.13;;;1.98;;
35312;SDS011;21425;50.454;30.466;2023-08-08T00:35:55;5.65;;;2.30;;
35312;SDS011;21425;50.454;30.466;2023-08-08T00:38:20;5.35;;;2.40;;
35312;SDS011;21425;50.454;30.466;2023-08-08T00:40:46;3.33;;;2.22;;
35312;SDS011;21425;50.454;30.466;2023-08-08T00:43:12;3.55;;;2.17;;
35312;SDS011;21425;50.454;30.466;2023-08-08T00:45:38;4.03;;;2.50;;
35312;SDS011;21425;50.454;30.466;2023-08-08T00:48:07;4.10;;;2.20;;
35312;SDS011;21425;50.454;30.466;2023-08-08T00:50:33;4.20;;;2.38;;
35312;SDS011;21425;50.454;30.466;2023-08-08T00:52:59;4.13;;;2.88;;
35312;SDS011;21425;50.454;30.466;2023-08-08T00:55:25;5.45;;;2.50;;
35312;SDS011;21425;50.454;30.466;2023-08-08T00:57:51;5.40;;;2.35;;
35312;SDS011;21425;50.454;30.466;2023-08-08T01:00:17;4.07;;;2.50;;
35312;SDS011;21425;50.454;30.466;2023-08-08T01:02:44;4.13;;;2.15;;
35312;SDS011;21425;50.454;30.466;2023-08-08T01:05:10;3.00;;;2.13;;
35312;SDS011;21425;50.454;30.466;2023-08-08T01:10:26;4.60;;;2.40;;
35312;SDS011;21425;50.454;30.466;2023-08-08T01:12:58;5.03;;;2.17;;
35312;SDS011;21425;50.454;30.466;2023-08-08T01:15:27;3.35;;;2.00;;
35312;SDS011;21425;50.454;30.466;2023-08-08T01:17:57;4.53;;;2.38;;
35312;SDS011;21425;50.454;30.466;2023-08-08T01:20:23;8.02;;;2.63;;
35312;SDS011;21425;50.454;30.466;2023-08-08T01:25:44;3.10;;;2.17;;
35312;SDS011;21425;50.454;30.466;2023-08-08T01:28:12;4.53;;;2.50;;
35312;SDS011;21425;50.454;30.466;2023-08-08T01:30:37;6.35;;;2.38;;
35312;SDS011;21425;50.454;30.466;2023-08-08T01:33:04;5.10;;;2.70;;
35312;SDS011;21425;50.454;30.466;2023-08-08T01:35:30;6.63;;;2.63;;
35312;SDS011;21425;50.454;30.466;2023-08-08T01:38:00;6.05;;;2.63;;
35312;SDS011;21425;50.454;30.466;2023-08-08T01:40:34;6.25;;;2.75;;
35312;SDS011;21425;50.454;30.466;2023-08-08T01:43:01;6.88;;;2.55;;
35312;SDS011;21425;50.454;30.466;2023-08-08T01:45:29;4.28;;;2.83;;
35312;SDS011;21425;50.454;30.466;2023-08-08T01:47:55;4.70;;;2.60;;
35312;SDS011;21425;50.454;30.466;2023-08-08T01:50:21;3.65;;;2.22;;
35312;SDS011;21425;50.454;30.466;2023-08-08T01:52:46;5.45;;;2.38;;
35312;SDS011;21425;50.454;30.466;2023-08-08T01:55:12;4.85;;;2.63;;
35312;SDS011;21425;50.454;30.466;2023-08-08T01:57:38;4.05;;;2.30;;
35312;SDS011;21425;50.454;30.466;2023-08-08T02:00:05;5.78;;;2.85;;
35312;SDS011;21425;50.454;30.466;2023-08-08T02:02:31;3.97;;;2.30;;
35312;SDS011;21425;50.454;30.466;2023-08-08T02:04:57;3.55;;;2.03;;
35312;SDS011;21425;50.454;30.466;2023-08-08T02:07:23;4.57;;;2.50;;
35312;SDS011;21425;50.454;30.466;2023-08-08T02:09:49;3.88;;;2.30;;
35312;SDS011;21425;50.454;30.466;2023-08-08T02:12:15;4.60;;;2.28;;
35312;SDS011;21425;50.454;30.466;2023-08-08T02:14:42;6.07;;;2.45;;
35312;SDS011;21425;50.454;30.466;2023-08-08T02:17:07;3.42;;;2.40;;
35312;SDS011;21425;50.454;30.466;2023-08-08T02:19:33;5.50;;;2.90;;
35312;SDS011;21425;50.454;30.466;2023-08-08T02:21:58;3.25;;;2.10;;
35312;SDS011;21425;50.454;30.466;2023-08-08T02:24:24;4.03;;;2.30;;
35312;SDS011;21425;50.454;30.466;2023-08-08T02:26:50;5.07;;;2.50;;
35312;SDS011;21425;50.454;30.466;2023-08-08T02:29:16;4.50;;;2.38;;
35312;SDS011;21425;50.454;30.466;2023-08-08T02:31:41;3.03;;;2.10;;
35312;SDS011;21425;50.454;30.466;2023-08-08T02:34:07;6.05;;;2.40;;
35312;SDS011;21425;50.454;30.466;2023-08-08T02:36:33;4.25;;;2.25;;
35312;SDS011;21425;50.454;30.466;2023-08-08T02:38:59;4.10;;;2.50;;
35312;SDS011;21425;50.454;30.466;2023-08-08T02:41:25;5.22;;;2.60;;
35312;SDS011;21425;50.454;30.466;2023-08-08T02:43:51;6.53;;;2.33;;
35312;SDS011;21425;50.454;30.466;2023-08-08T02:46:16;5.75;;;2.47;;
35312;SDS011;21425;50.454;30.466;2023-08-08T02:48:42;4.70;;;2.50;;
35312;SDS011;21425;50.454;30.466;2023-08-08T02:51:08;4.07;;;2.90;;
35312;SDS011;21425;50.454;30.466;2023-08-08T02:53:34;2.85;;;2.20;;
35312;SDS011;21425;50.454;30.466;2023-08-08T02:55:59;4.35;;;2.35;;
35312;SDS011;21425;50.454;30.466;2023-08-08T02:58:25;4.38;;;2.10;;
35312;SDS011;21425;50.454;30.466;2023-08-08T03:00:50;5.53;;;2.25;;
35312;SDS011;21425;50.454;30.466;2023-08-08T03:03:17;4.93;;;2.22;;
35312;SDS011;21425;50.454;30.466;2023-08-08T03:05:44;4.90;;;2.38;;
35312;SDS011;21425;50.454;30.466;2023-08-08T03:08:10;4.22;;;2.53;;
35312;SDS011;21425;50.454;30.466;2023-08-08T03:10:36;7.00;;;2.53;;
35312;SDS011;21425;50.454;30.466;2023-08-08T03:13:02;3.15;;;2.33;;
35312;SDS011;21425;50.454;30.466;2023-08-08T03:15:28;3.10;;;1.98;;
35312;SDS011;21425;50.454;30.466;2023-08-08T03:17:54;3.17;;;2.40;;
35312;SDS011;21425;50.454;30.466;2023-08-08T03:20:20;2.72;;;1.90;;
35312;SDS011;21425;50.454;30.466;2023-08-08T03:22:46;2.92;;;2.03;;
35312;SDS011;21425;50.454;30.466;2023-08-08T03:25:12;2.78;;;1.95;;
35312;SDS011;21425;50.454;30.466;2023-08-08T03:27:38;3.72;;;2.63;;
35312;SDS011;21425;50.454;30.466;2023-08-08T03:30:04;3.55;;;2.20;;
35312;SDS011;21425;50.454;30.466;2023-08-08T03:32:31;7.25;;;2.60;;
35312;SDS011;21425;50.454;30.466;2023-08-08T03:34:56;3.47;;;2.35;;
35312;SDS011;21425;50.454;30.466;2023-08-08T03:37:22;3.55;;;2.10;;
35312;SDS011;21425;50.454;30.466;2023-08-08T03:39:48;4.07;;;2.08;;
35312;SDS011;21425;50.454;30.466;2023-08-08T03:42:14;9.02;;;2.90;;
35312;SDS011;21425;50.454;30.466;2023-08-08T03:44:40;4.57;;;1.92;;
35312;SDS011;21425;50.454;30.466;2023-08-08T03:47:06;3.50;;;1.80;;
35312;SDS011;21425;50.454;30.466;2023-08-08T03:49:32;4.97;;;2.03;;
35312;SDS011;21425;50.454;30.466;2023-08-08T03:51:58;3.35;;;2.00;;
35312;SDS011;21425;50.454;30.466;2023-08-08T03:54:24;5.43;;;2.30;;
35312;SDS011;21425;50.454;30.466;2023-08-08T03:56:50;3.72;;;2.13;;
35312;SDS011;21425;50.454;30.466;2023-08-08T03:59:16;3.78;;;2.38;;
35312;SDS011;21425;50.454;30.466;2023-08-08T04:01:42;4.82;;;2.25;;
35312;SDS011;21425;50.454;30.466;2023-08-08T04:04:07;5.88;;;2.10;;
35312;SDS011;21425;50.454;30.466;2023-08-08T04:06:33;3.45;;;1.88;;
35312;SDS011;21425;50.454;30.466;2023-08-08T04:08:59;4.00;;;2.10;;
35312;SDS011;21425;50.454;30.466;2023-08-08T04:11:26;3.70;;;2.65;;
35312;SDS011;21425;50.454;30.466;2023-08-08T04:13:52;6.32;;;2.30;;
35312;SDS011;21425;50.454;30.466;2023-08-08T04:16:18;4.82;;;2.13;;
35312;SDS011;21425;50.454;30.466;2023-08-08T04:18:44;4.57;;;2.05;;
35312;SDS011;21425;50.454;30.466;2023-08-08T04:21:10;3.08;;;2.20;;
35312;SDS011;21425;50.454;30.466;2023-08-08T04:23:35;5.60;;;2.20;;
35312;SDS011;21425;50.454;30.466;2023-08-08T04:26:01;3.15;;;1.70;;
35312;SDS011;21425;50.454;30.466;2023-08-08T04:28:26;4.72;;;2.20;;
35312;SDS011;21425;50.454;30.466;2023-08-08T04:30:52;4.32;;;2.35;;
35312;SDS011;21425;50.454;30.466;2023-08-08T04:33:18;3.53;;;2.17;;
35312;SDS011;21425;50.454;30.466;2023-08-08T04:35:44;3.30;;;2.20;;
35312;SDS011;21425;50.454;30.466;2023-08-08T04:38:10;3.03;;;2.10;;
35312;SDS011;21425;50.454;30.466;2023-08-08T04:40:36;3.72;;;1.95;;
35312;SDS011;21425;50.454;30.466;2023-08-08T04:43:02;3.90;;;2.67;;
35312;SDS011;21425;50.454;30.466;2023-08-08T04:45:28;4.28;;;2.20;;
35312;SDS011;21425;50.454;30.466;2023-08-08T04:47:54;3.55;;;2.25;;
35312;SDS011;21425;50.454;30.466;2023-08-08T04:50:20;3.47;;;2.25;;
35312;SDS011;21425;50.454;30.466;2023-08-08T04:52:46;5.32;;;2.25;;
35312;SDS011;21425;50.454;30.466;2023-08-08T04:55:12;5.93;;;1.90;;
35312;SDS011;21425;50.454;30.466;2023-08-08T04:57:38;3.83;;;1.98;;
35312;SDS011;21425;50.454;30.466;2023-08-08T05:00:04;3.30;;;2.13;;
35312;SDS011;21425;50.454;30.466;2023-08-08T05:02:33;3.45;;;2.20;;
35312;SDS011;21425;50.454;30.466;2023-08-08T05:04:59;3.03;;;2.08;;
35312;SDS011;21425;50.454;30.466;2023-08-08T05:07:25;4.07;;;2.00;;
35312;SDS011;21425;50.454;30.466;2023-08-08T05:09:54;3.40;;;2.03;;
35312;SDS011;21425;50.454;30.466;2023-08-08T05:12:20;7.07;;;2.60;;
35312;SDS011;21425;50.454;30.466;2023-08-08T05:14:45;7.57;;;2.58;;
35312;SDS011;21425;50.454;30.466;2023-08-08T05:17:11;6.68;;;2.00;;
35312;SDS011;21425;50.454;30.466;2023-08-08T05:19:37;3.10;;;2.00;;
35312;SDS011;21425;50.454;30.466;2023-08-08T05:22:03;2.47;;;1.75;;
35312;SDS011;21425;50.454;30.466;2023-08-08T05:24:29;6.15;;;2.08;;
35312;SDS011;21425;50.454;30.466;2023-08-08T05:26:55;3.65;;;1.83;;
35312;SDS011;21425;50.454;30.466;2023-08-08T05:29:20;4.57;;;1.90;;
35312;SDS011;21425;50.454;30.466;2023-08-08T05:31:46;3.42;;;1.77;;
35312;SDS011;21425;50.454;30.466;2023-08-08T05:34:12;5.57;;;1.95;;
35312;SDS011;21425;50.454;30.466;2023-08-08T05:36:38;2.20;;;1.60;;
35312;SDS011;21425;50.454;30.466;2023-08-08T05:39:04;3.83;;;1.95;;
35312;SDS011;21425;50.454;30.466;2023-08-08T05:41:31;2.85;;;1.60;;
35312;SDS011;21425;50.454;30.466;2023-08-08T05:43:57;5.32;;;1.55;;
35312;SDS011;21425;50.454;30.466;2023-08-08T05:46:23;2.40;;;1.42;;
35312;SDS011;21425;50.454;30.466;2023-08-08T05:48:48;2.95;;;1.45;;
35312;SDS011;21425;50.454;30.466;2023-08-08T05:51:15;5.15;;;1.77;;
35312;SDS011;21425;50.454;30.466;2023-08-08T05:53:40;3.80;;;1.88;;
35312;SDS011;21425;50.454;30.466;2023-08-08T05:56:06;2.95;;;1.30;;
35312;SDS011;21425;50.454;30.466;2023-08-08T05:58:33;1.88;;;1.10;;
35312;SDS011;21425;50.454;30.466;2023-08-08T06:00:59;3.90;;;1.27;;
35312;SDS011;21425;50.454;30.466;2023-08-08T06:03:25;1.95;;;1.20;;
35312;SDS011;21425;50.454;30.466;2023-08-08T06:05:51;3.75;;;1.30;;
35312;SDS011;21425;50.454;30.466;2023-08-08T06:08:17;3.28;;;1.40;;
35312;SDS011;21425;50.454;30.466;2023-08-08T06:10:43;3.35;;;1.40;;
35312;SDS011;21425;50.454;30.466;2023-08-08T06:13:08;2.30;;;1.30;;
35312;SDS011;21425;50.454;30.466;2023-08-08T06:15:34;1.77;;;1.13;;
35312;SDS011;21425;50.454;30.466;2023-08-08T06:18:00;2.20;;;1.30;;
35312;SDS011;21425;50.454;30.466;2023-08-08T06:20:26;2.70;;;1.17;;
35312;SDS011;21425;50.454;30.466;2023-08-08T06:22:53;1.65;;;1.00;;
35312;SDS011;21425;50.454;30.466;2023-08-08T06:25:19;2.00;;;1.13;;
35312;SDS011;21425;50.454;30.466;2023-08-08T06:27:45;1.80;;;1.23;;
35312;SDS011;21425;50.454;30.466;2023-08-08T06:30:11;1.50;;;1.05;;
35312;SDS011;21425;50.454;30.466;2023-08-08T06:32:37;3.03;;;1.30;;
35312;SDS011;21425;50.454;30.466;2023-08-08T06:35:03;4.00;;;1.73;;
35312;SDS011;21425;50.454;30.466;2023-08-08T06:37:29;1.73;;;1.35;;
35312;SDS011;21425;50.454;30.466;2023-08-08T06:39:54;2.75;;;1.60;;
35312;SDS011;21425;50.454;30.466;2023-08-08T06:42:20;5.03;;;1.70;;
35312;SDS011;21425;50.454;30.466;2023-08-08T06:44:46;3.50;;;2.00;;
35312;SDS011;21425;50.454;30.466;2023-08-08T06:47:12;2.25;;;1.45;;
35312;SDS011;21425;50.454;30.466;2023-08-08T06:49:38;2.42;;;1.23;;
35312;SDS011;21425;50.454;30.466;2023-08-08T06:52:04;6.47;;;1.65;;
35312;SDS011;21425;50.454;30.466;2023-08-08T06:54:31;3.03;;;1.70;;
35312;SDS011;21425;50.454;30.466;2023-08-08T06:56:57;2.47;;;1.60;;
35312;SDS011;21425;50.454;30.466;2023-08-08T06:59:23;1.25;;;0.90;;
35312;SDS011;21425;50.454;30.466;2023-08-08T07:01:49;4.85;;;1.65;;
35312;SDS011;21425;50.454;30.466;2023-08-08T07:04:15;5.00;;;1.95;;
35312;SDS011;21425;50.454;30.466;2023-08-08T07:06:42;2.38;;;1.48;;
35312;SDS011;21425;50.454;30.466;2023-08-08T07:09:08;5.00;;;1.80;;
35312;SDS011;21425;50.454;30.466;2023-08-08T07:11:35;3.25;;;2.13;;
35312;SDS011;21425;50.454;30.466;2023-08-08T07:14:02;4.38;;;1.55;;
35312;SDS011;21425;50.454;30.466;2023-08-08T07:16:27;2.40;;;1.52;;
35312;SDS011;21425;50.454;30.466;2023-08-08T07:18:53;4.47;;;1.55;;
35312;SDS011;21425;50.454;30.466;2023-08-08T07:21:19;2.72;;;1.80;;
35312;SDS011;21425;50.454;30.466;2023-08-08T07:23:45;3.78;;;1.42;;
35312;SDS011;21425;50.454;30.466;2023-08-08T07:26:11;2.25;;;1.40;;
35312;SDS011;21425;50.454;30.466;2023-08-08T07:28:37;3.13;;;1.40;;
35312;SDS011;21425;50.454;30.466;2023-08-08T07:31:03;5.57;;;1.48;;
35312;SDS011;21425;50.454;30.466;2023-08-08T07:33:29;2.20;;;1.15;;
35312;SDS011;21425;50.454;30.466;2023-08-08T07:35:55;5.28;;;1.50;;
35312;SDS011;21425;50.454;30.466;2023-08-08T07:38:21;3.50;;;1.05;;
35312;SDS011;21425;50.454;30.466;2023-08-08T07:40:47;2.97;;;1.15;;
35312;SDS011;21425;50.454;30.466;2023-08-08T07:43:13;2.08;;;1.13;;
35312;SDS011;21425;50.454;30.466;2023-08-08T07:45:39;6.45;;;1.83;;
35312;SDS011;21425;50.454;30.466;2023-08-08T07:48:05;2.60;;;1.10;;
35312;SDS011;21425;50.454;30.466;2023-08-08T07:50:31;1.50;;;0.93;;
35312;SDS011;21425;50.454;30.466;2023-08-08T07:52:57;1.85;;;1.00;;
35312;SDS011;21425;50.454;30.466;2023-08-08T07:55:22;2.03;;;1.20;;
35312;SDS011;21425;50.454;30.466;2023-08-08T07:57:48;1.83;;;1.10;;
35312;SDS011;21425;50.454;30.466;2023-08-08T08:00:14;2.58;;;1.10;;
35312;SDS011;21425;50.454;30.466;2023-08-08T08:02:43;4.22;;;1.10;;
35312;SDS011;21425;50.454;30.466;2023-08-08T08:05:09;2.50;;;1.05;;
35312;SDS011;21425;50.454;30.466;2023-08-08T08:07:36;4.20;;;1.20;;
35312;SDS011;21425;50.454;30.466;2023-08-08T08:10:03;2.70;;;1.25;;
35312;SDS011;21425;50.454;30.466;2023-08-08T08:12:30;1.42;;;1.10;;
35312;SDS011;21425;50.454;30.466;2023-08-08T08:14:56;2.78;;;1.25;;
35312;SDS011;21425;50.454;30.466;2023-08-08T08:17:22;1.80;;;1.05;;
35312;SDS011;21425;50.454;30.466;2023-08-08T08:19:48;1.90;;;1.35;;
35312;SDS011;21425;50.454;30.466;2023-08-08T08:22:15;1.88;;;1.13;;
35312;SDS011;21425;50.454;30.466;2023-08-08T08:24:40;2.17;;;1.10;;
35312;SDS011;21425;50.454;30.466;2023-08-08T08:27:06;2.72;;;1.20;;
35312;SDS011;21425;50.454;30.466;2023-08-08T08:29:32;1.20;;;0.90;;
35312;SDS011;21425;50.454;30.466;2023-08-08T08:31:58;1.50;;;0.80;;
35312;SDS011;21425;50.454;30.466;2023-08-08T08:34:24;2.08;;;1.35;;
35312;SDS011;21425;50.454;30.466;2023-08-08T08:36:50;5.88;;;1.20;;
35312;SDS011;21425;50.454;30.466;2023-08-08T08:39:16;1.55;;;1.20;;
35312;SDS011;21425;50.454;30.466;2023-08-08T08:41:42;1.92;;;1.40;;
35312;SDS011;21425;50.454;30.466;2023-08-08T08:44:16;4.70;;;1.42;;
35312;SDS011;21425;50.454;30.466;2023-08-08T08:46:41;3.28;;;1.33;;
35312;SDS011;21425;50.454;30.466;2023-08-08T08:49:09;4.30;;;1.13;;
35312;SDS011;21425;50.454;30.466;2023-08-08T08:51:36;1.63;;;1.10;;
35312;SDS011;21425;50.454;30.466;2023-08-08T08:54:03;1.83;;;1.13;;
35312;SDS011;21425;50.454;30.466;2023-08-08T08:56:29;3.58;;;1.10;;
35312;SDS011;21425;50.454;30.466;2023-08-08T08:58:55;1.30;;;1.00;;
35312;SDS011;21425;50.454;30.466;2023-08-08T09:01:21;1.80;;;1.20;;
35312;SDS011;21425;50.454;30.466;2023-08-08T09:03:49;1.50;;;1.10;;
35312;SDS011;21425;50.454;30.466;2023-08-08T09:06:15;2.17;;;0.90;;
35312;SDS011;21425;50.454;30.466;2023-08-08T09:08:42;1.58;;;1.15;;
35312;SDS011;21425;50.454;30.466;2023-08-08T09:11:08;2.05;;;1.13;;
35312;SDS011;21425;50.454;30.466;2023-08-08T09:13:37;1.85;;;1.10;;
35312;SDS011;21425;50.454;30.466;2023-08-08T09:16:04;1.65;;;1.10;;
35312;SDS011;21425;50.454;30.466;2023-08-08T09:18:31;1.60;;;1.23;;
35312;SDS011;21425;50.454;30.466;2023-08-08T09:20:57;1.23;;;0.90;;
35312;SDS011;21425;50.454;30.466;2023-08-08T09:23:23;1.70;;;1.00;;
35312;SDS011;21425;50.454;30.466;2023-08-08T09:25:49;2.53;;;0.90;;
35312;SDS011;21425;50.454;30.466;2023-08-08T09:28:15;2.70;;;1.40;;
35312;SDS011;21425;50.454;30.466;2023-08-08T09:30:42;2.65;;;1.40;;
35312;SDS011;21425;50.454;30.466;2023-08-08T09:33:08;1.58;;;1.15;;
35312;SDS011;21425;50.454;30.466;2023-08-08T09:35:37;3.40;;;1.23;;
35312;SDS011;21425;50.454;30.466;2023-08-08T09:38:03;1.83;;;1.15;;
35312;SDS011;21425;50.454;30.466;2023-08-08T09:40:29;2.97;;;1.10;;
35312;SDS011;21425;50.454;30.466;2023-08-08T09:42:56;3.60;;;1.40;;
35312;SDS011;21425;50.454;30.466;2023-08-08T09:45:23;2.22;;;1.40;;
35312;SDS011;21425;50.454;30.466;2023-08-08T09:47:52;1.48;;;1.00;;
35312;SDS011;21425;50.454;30.466;2023-08-08T09:50:18;1.48;;;1.10;;
35312;SDS011;21425;50.454;30.466;2023-08-08T09:52:45;2.03;;;1.10;;
35312;SDS011;21425;50.454;30.466;2023-08-08T09:55:12;3.17;;;1.10;;
35312;SDS011;21425;50.454;30.466;2023-08-08T09:57:38;1.67;;;1.00;;
35312;SDS011;21425;50.454;30.466;2023-08-08T10:00:05;1.02;;;0.90;;
35312;SDS011;21425;50.454;30.466;2023-08-08T10:02:35;0.90;;;0.80;;
35312;SDS011;21425;50.454;30.466;2023-08-08T10:05:02;1.05;;;0.80;;
35312;SDS011;21425;50.454;30.466;2023-08-08T10:07:29;1.40;;;0.80;;
35312;SDS011;21425;50.454;30.466;2023-08-08T10:09:56;2.40;;;0.73;;
35312;SDS011;21425;50.454;30.466;2023-08-08T10:12:22;1.50;;;0.93;;
35312;SDS011;21425;50.454;30.466;2023-08-08T10:14:50;1.52;;;1.13;;
35312;SDS011;21425;50.454;30.466;2023-08-08T10:17:17;3.15;;;1.10;;
35312;SDS011;21425;50.454;30.466;2023-08-08T10:19:50;4.25;;;2.28;;
35312;SDS011;21425;50.454;30.466;2023-08-08T10:22:19;2.25;;;1.48;;
35312;SDS011;21425;50.454;30.466;2023-08-08T10:24:47;1.17;;;0.80;;
35312;SDS011;21425;50.454;30.466;2023-08-08T10:27:13;3.80;;;0.90;;
35312;SDS011;21425;50.454;30.466;2023-08-08T10:29:40;0.98;;;0.73;;
35312;SDS011;21425;50.454;30.466;2023-08-08T10:32:06;0.93;;;0.70;;
35312;SDS011;21425;50.454;30.466;2023-08-08T10:34:36;4.60;;;1.10;;
35312;SDS011;21425;50.454;30.466;2023-08-08T10:37:10;2.35;;;0.90;;
35312;SDS011;21425;50.454;30.466;2023-08-08T10:39:37;1.50;;;1.00;;
35312;SDS011;21425;50.454;30.466;2023-08-08T10:42:03;1.73;;;1.20;;
35312;SDS011;21425;50.454;30.466;2023-08-08T10:44:30;3.05;;;1.08;;
35312;SDS011;21425;50.454;30.466;2023-08-08T10:46:56;2.13;;;1.00;;
35312;SDS011;21425;50.454;30.466;2023-08-08T10:49:22;1.23;;;0.93;;
35312;SDS011;21425;50.454;30.466;2023-08-08T10:51:49;2.80;;;0.95;;
35312;SDS011;21425;50.454;30.466;2023-08-08T10:54:22;1.63;;;1.10;;
35312;SDS011;21425;50.454;30.466;2023-08-08T10:56:52;1.42;;;1.00;;
35312;SDS011;21425;50.454;30.466;2023-08-08T10:59:22;1.33;;;0.90;;
35312;SDS011;21425;50.454;30.466;2023-08-08T11:01:49;1.15;;;0.77;;
35312;SDS011;21425;50.454;30.466;2023-08-08T11:04:18;1.70;;;1.00;;
35312;SDS011;21425;50.454;30.466;2023-08-08T11:06:44;2.83;;;1.02;;
35312;SDS011;21425;50.454;30.466;2023-08-08T11:09:12;0.90;;;0.68;;
35312;SDS011;21425;50.454;30.466;2023-08-08T11:11:39;2.25;;;0.80;;
35312;SDS011;21425;50.454;30.466;2023-08-08T11:14:15;1.02;;;0.70;;
35312;SDS011;21425;50.454;30.466;2023-08-08T11:16:42;2.05;;;0.77;;
35312;SDS011;21425;50.454;30.466;2023-08-08T11:19:08;0.93;;;0.70;;
35312;SDS011;21425;50.454;30.466;2023-08-08T11:21:40;1.35;;;0.75;;
35312;SDS011;21425;50.454;30.466;2023-08-08T11:24:07;0.77;;;0.63;;
35312;SDS011;21425;50.454;30.466;2023-08-08T11:26:37;1.50;;;0.68;;
35312;SDS011;21425;50.454;30.466;2023-08-08T11:29:04;1.40;;;0.77;;
35312;SDS011;21425;50.454;30.466;2023-08-08T11:31:35;1.88;;;0.95;;
35312;SDS011;21425;50.454;30.466;2023-08-08T11:34:01;2.92;;;0.98;;
35312;SDS011;21425;50.454;30.466;2023-08-08T11:36:31;2.05;;;0.70;;
35312;SDS011;21425;50.454;30.466;2023-08-08T11:38:58;0.80;;;0.70;;
35312;SDS011;21425;50.454;30.466;2023-08-08T11:41:33;2.67;;;0.85;;
35312;SDS011;21425;50.454;30.466;2023-08-08T11:44:01;0.55;;;0.50;;
35312;SDS011;21425;50.454;30.466;2023-08-08T11:46:32;1.05;;;0.75;;
35312;SDS011;21425;50.454;30.466;2023-08-08T11:49:04;1.25;;;0.77;;
35312;SDS011;21425;50.454;30.466;2023-08-08T11:51:31;2.53;;;0.85;;
35312;SDS011;21425;50.454;30.466;2023-08-08T11:53:59;1.15;;;0.68;;
35312;SDS011;21425;50.454;30.466;2023-08-08T11:56:25;1.83;;;0.82;;
35312;SDS011;21425;50.454;30.466;2023-08-08T11:58:50;1.05;;;0.93;;
35312;SDS011;21425;50.454;30.466;2023-08-08T12:01:24;3.50;;;1.02;;
35312;SDS011;21425;50.454;30.466;2023-08-08T12:06:16;2.58;;;0.60;;
35312;SDS011;21425;50.454;30.466;2023-08-08T12:08:43;1.58;;;0.80;;
35312;SDS011;21425;50.454;30.466;2023-08-08T12:11:13;3.15;;;0.50;;
35312;SDS011;21425;50.454;30.466;2023-08-08T12:13:42;3.65;;;0.88;;
35312;SDS011;21425;50.454;30.466;2023-08-08T12:16:10;0.80;;;0.65;;
35312;SDS011;21425;50.454;30.466;2023-08-08T12:18:37;1.52;;;0.77;;
35312;SDS011;21425;50.454;30.466;2023-08-08T12:21:07;3.25;;;0.98;;
35312;SDS011;21425;50.454;30.466;2023-08-08T12:23:34;2.75;;;1.10;;
35312;SDS011;21425;50.454;30.466;2023-08-08T12:26:02;2.38;;;0.75;;
35312;SDS011;21425;50.454;30.466;2023-08-08T12:28:28;1.83;;;0.73;;
35312;SDS011;21425;50.454;30.466;2023-08-08T12:30:54;0.95;;;0.68;;
35312;SDS011;21425;50.454;30.466;2023-08-08T12:33:20;1.80;;;0.90;;
35312;SDS011;21425;50.454;30.466;2023-08-08T12:35:47;1.73;;;0.80;;
35312;SDS011;21425;50.454;30.466;2023-08-08T12:38:13;2.53;;;0.80;;
35312;SDS011;21425;50.454;30.466;2023-08-08T12:40:40;2.25;;;0.70;;
35312;SDS011;21425;50.454;30.466;2023-08-08T12:43:05;2.42;;;1.00;;
35312;SDS011;21425;50.454;30.466;2023-08-08T12:45:31;2.50;;;0.60;;
35312;SDS011;21425;50.454;30.466;2023-08-08T12:47:57;1.23;;;0.70;;
35312;SDS011;21425;50.454;30.466;2023-08-08T12:50:24;1.95;;;0.90;;
35312;SDS011;21425;50.454;30.466;2023-08-08T12:52:49;1.52;;;0.90;;
35312;SDS011;21425;50.454;30.466;2023-08-08T12:55:15;2.50;;;0.88;;
35312;SDS011;21425;50.454;30.466;2023-08-08T12:57:43;3.20;;;0.85;;
35312;SDS011;21425;50.454;30.466;2023-08-08T13:00:09;1.60;;;1.05;;
35312;SDS011;21425;50.454;30.466;2023-08-08T13:02:36;1.52;;;0.95;;
35312;SDS011;21425;50.454;30.466;2023-08-08T13:05:02;3.50;;;0.98;;
35312;SDS011;21425;50.454;30.466;2023-08-08T13:07:29;2.95;;;1.08;;
35312;SDS011;21425;50.454;30.466;2023-08-08T13:09:54;3.42;;;0.80;;
35312;SDS011;21425;50.454;30.466;2023-08-08T13:12:20;1.58;;;0.80;;
35312;SDS011;21425;50.454;30.466;2023-08-08T13:14:47;1.50;;;0.60;;
35312;SDS011;21425;50.454;30.466;2023-08-08T13:17:13;1.88;;;0.70;;
35312;SDS011;21425;50.454;30.466;2023-08-08T13:19:39;2.83;;;0.70;;
35312;SDS011;21425;50.454;30.466;2023-08-08T13:22:05;2.55;;;0.82;;
35312;SDS011;21425;50.454;30.466;2023-08-08T13:24:31;1.48;;;0.63;;
35312;SDS011;21425;50.454;30.466;2023-08-08T13:26:57;0.90;;;0.70;;
35312;SDS011;21425;50.454;30.466;2023-08-08T13:29:23;1.85;;;0.70;;
35312;SDS011;21425;50.454;30.466;2023-08-08T13:31:49;3.97;;;0.70;;
35312;SDS011;21425;50.454;30.466;2023-08-08T13:34:15;2.75;;;0.80;;
35312;SDS011;21425;50.454;30.466;2023-08-08T13:36:41;1.10;;;0.68;;
35312;SDS011;21425;50.454;30.466;2023-08-08T13:39:07;1.52;;;0.82;;
35312;SDS011;21425;50.454;30.466;2023-08-08T13:41:35;3.35;;;0.70;;
35312;SDS011;21425;50.454;30.466;2023-08-08T13:44:00;3.30;;;0.75;;
35312;SDS011;21425;50.454;30.466;2023-08-08T13:46:26;0.90;;;0.80;;
35312;SDS011;21425;50.454;30.466;2023-08-08T13:48:52;3.30;;;0.70;;
35312;SDS011;21425;50.454;30.466;2023-08-08T13:51:18;1.25;;;1.02;;
35312;SDS011;21425;50.454;30.466;2023-08-08T13:53:44;3.92;;;1.00;;
35312;SDS011;21425;50.454;30.466;2023-08-08T13:56:10;2.03;;;0.98;;
35312;SDS011;21425;50.454;30.466;2023-08-08T13:58:36;3.70;;;0.93;;
35312;SDS011;21425;50.454;30.466;2023-08-08T14:01:02;2.53;;;1.17;;
35312;SDS011;21425;50.454;30.466;2023-08-08T14:03:29;2.80;;;0.90;;
35312;SDS011;21425;50.454;30.466;2023-08-08T14:05:54;1.48;;;0.80;;
35312;SDS011;21425;50.454;30.466;2023-08-08T14:08:20;3.67;;;0.82;;
35312;SDS011;21425;50.454;30.466;2023-08-08T14:10:46;8.75;;;1.20;;
35312;SDS011;21425;50.454;30.466;2023-08-08T14:13:12;1.67;;;0.95;;
35312;SDS011;21425;50.454;30.466;2023-08-08T14:15:38;5.55;;;1.05;;
35312;SDS011;21425;50.454;30.466;2023-08-08T14:18:04;2.53;;;1.08;;
35312;SDS011;21425;50.454;30.466;2023-08-08T14:20:30;1.45;;;1.00;;
35312;SDS011;21425;50.454;30.466;2023-08-08T14:22:56;0.93;;;0.73;;
35312;SDS011;21425;50.454;30.466;2023-08-08T14:25:22;3.40;;;1.20;;
35312;SDS011;21425;50.454;30.466;2023-08-08T14:27:48;1.40;;;1.00;;
35312;SDS011;21425;50.454;30.466;2023-08-08T14:30:13;1.58;;;1.00;;
35312;SDS011;21425;50.454;30.466;2023-08-08T14:32:40;2.08;;;1.00;;
35312;SDS011;21425;50.454;30.466;2023-08-08T14:35:06;1.25;;;1.00;;
35312;SDS011;21425;50.454;30.466;2023-08-08T14:37:33;2.17;;;1.00;;